Portada
METAR-TAF:

METAR-TAF

Aeroports :

Lió, França

latitud: 45-43N, longitud: 004-57E, altitud: 200 m

Observació

L'informe es va fer fa 31 minuts, a les 14:30 UTC
Vent 2 kt amb direcció variable
Temperatura 25°C
Humitat 24%
Pressió 1024 hPa
Visibilitat 10 km o més
sense núvols per sota de 1500 mi sense presència de cumulonimbus.

METAR: LFLY 191430Z AUTO VRB02KT CAVOK 25/03 Q1024 NOSIG

Hora: 17:01 (15:01 UTC)

Pronòstic

L'informe es va fer fa 4 hores i 1 minuts, a les 11:00 UTC
Pronòstic vàlid del 19 a les 12 UTC al 20 a les 12 UTC
Vent 6 kt del Sud
Visibilitat 10 km o més
sense núvols per sota de 1500 mi sense presència de cumulonimbus.

TAF: LFLY 191100Z 1912/2012 18006KT CAVOK

Observacions i pronòstics meteorològics de més de 4000 aeroports (METAR i TAF).

Les estacions disponibles són els punts grocs i vermells al mapa.

Posi el ratolí al punt desitjat per veure el nom de l'estació.

Feu clic per veure les observacions i els pronòstics meteorològics.

Per canviar el mapa: feu clic els botons verds amb una creu de color negre per apropar; al botó verd amb un guió per allunyar la imatge; o en les fletxes verdes per a mapes adjacents.


METAR-TAF: